sensor_id;sensor_type;location;lat;lon;timestamp;P1;durP1;ratioP1;P2;durP2;ratioP2
41480;SDS011;27217;51.220;5.308;2023-06-24T00:01:10;16.73;;;12.00;;
41480;SDS011;27217;51.220;5.308;2023-06-24T00:03:38;18.52;;;11.93;;
41480;SDS011;27217;51.220;5.308;2023-06-24T00:06:04;16.60;;;11.57;;
41480;SDS011;27217;51.220;5.308;2023-06-24T00:08:30;16.67;;;10.60;;
41480;SDS011;27217;51.220;5.308;2023-06-24T00:11:00;18.02;;;10.55;;
41480;SDS011;27217;51.220;5.308;2023-06-24T00:13:27;16.95;;;10.35;;
41480;SDS011;27217;51.220;5.308;2023-06-24T00:15:53;15.95;;;9.93;;
41480;SDS011;27217;51.220;5.308;2023-06-24T00:18:19;16.98;;;9.85;;
41480;SDS011;27217;51.220;5.308;2023-06-24T00:20:46;16.85;;;11.20;;
41480;SDS011;27217;51.220;5.308;2023-06-24T00:23:12;15.13;;;9.90;;
41480;SDS011;27217;51.220;5.308;2023-06-24T00:25:42;14.43;;;9.88;;
41480;SDS011;27217;51.220;5.308;2023-06-24T00:28:08;15.52;;;9.40;;
41480;SDS011;27217;51.220;5.308;2023-06-24T00:30:34;13.63;;;8.98;;
41480;SDS011;27217;51.220;5.308;2023-06-24T00:33:00;14.77;;;8.27;;
41480;SDS011;27217;51.220;5.308;2023-06-24T00:35:27;12.35;;;8.18;;
41480;SDS011;27217;51.220;5.308;2023-06-24T00:37:53;12.65;;;8.52;;
41480;SDS011;27217;51.220;5.308;2023-06-24T00:40:23;18.83;;;9.02;;
41480;SDS011;27217;51.220;5.308;2023-06-24T00:42:49;16.90;;;9.82;;
41480;SDS011;27217;51.220;5.308;2023-06-24T00:45:15;14.98;;;8.23;;
41480;SDS011;27217;51.220;5.308;2023-06-24T00:47:42;12.52;;;7.65;;
41480;SDS011;27217;51.220;5.308;2023-06-24T00:50:09;11.82;;;7.25;;
41480;SDS011;27217;51.220;5.308;2023-06-24T00:52:37;11.15;;;7.03;;
41480;SDS011;27217;51.220;5.308;2023-06-24T00:55:07;8.98;;;7.07;;
41480;SDS011;27217;51.220;5.308;2023-06-24T00:57:38;10.48;;;6.75;;
41480;SDS011;27217;51.220;5.308;2023-06-24T01:00:08;13.50;;;7.20;;
41480;SDS011;27217;51.220;5.308;2023-06-24T01:02:38;15.88;;;7.25;;
41480;SDS011;27217;51.220;5.308;2023-06-24T01:05:07;9.70;;;6.50;;
41480;SDS011;27217;51.220;5.308;2023-06-24T01:07:35;8.95;;;6.32;;
41480;SDS011;27217;51.220;5.308;2023-06-24T01:10:02;9.50;;;6.72;;
41480;SDS011;27217;51.220;5.308;2023-06-24T01:12:30;9.27;;;6.13;;
41480;SDS011;27217;51.220;5.308;2023-06-24T01:14:58;11.27;;;6.60;;
41480;SDS011;27217;51.220;5.308;2023-06-24T01:17:28;10.65;;;6.60;;
41480;SDS011;27217;51.220;5.308;2023-06-24T01:37:00;11.40;;;7.15;;
41480;SDS011;27217;51.220;5.308;2023-06-24T01:39:30;9.38;;;6.47;;
41480;SDS011;27217;51.220;5.308;2023-06-24T01:41:59;9.75;;;6.38;;
41480;SDS011;27217;51.220;5.308;2023-06-24T01:44:30;15.88;;;7.50;;
41480;SDS011;27217;51.220;5.308;2023-06-24T01:46:57;12.73;;;6.90;;
41480;SDS011;27217;51.220;5.308;2023-06-24T01:49:24;9.65;;;7.10;;
41480;SDS011;27217;51.220;5.308;2023-06-24T01:51:55;11.63;;;7.38;;
41480;SDS011;27217;51.220;5.308;2023-06-24T01:54:24;12.13;;;6.65;;
41480;SDS011;27217;51.220;5.308;2023-06-24T01:56:53;9.77;;;6.75;;
41480;SDS011;27217;51.220;5.308;2023-06-24T01:59:21;14.90;;;7.07;;
41480;SDS011;27217;51.220;5.308;2023-06-24T02:01:48;11.45;;;6.18;;
41480;SDS011;27217;51.220;5.308;2023-06-24T02:04:16;18.00;;;7.18;;
41480;SDS011;27217;51.220;5.308;2023-06-24T02:06:43;10.95;;;6.68;;
41480;SDS011;27217;51.220;5.308;2023-06-24T02:09:11;9.68;;;5.93;;
41480;SDS011;27217;51.220;5.308;2023-06-24T02:11:38;9.52;;;6.13;;
41480;SDS011;27217;51.220;5.308;2023-06-24T02:14:05;9.85;;;6.55;;
41480;SDS011;27217;51.220;5.308;2023-06-24T02:16:32;12.60;;;6.75;;
41480;SDS011;27217;51.220;5.308;2023-06-24T02:19:00;10.35;;;7.38;;
41480;SDS011;27217;51.220;5.308;2023-06-24T02:21:27;11.63;;;7.32;;
41480;SDS011;27217;51.220;5.308;2023-06-24T02:23:54;13.07;;;6.63;;
41480;SDS011;27217;51.220;5.308;2023-06-24T02:26:20;10.30;;;7.53;;
41480;SDS011;27217;51.220;5.308;2023-06-24T02:28:48;16.48;;;7.63;;
41480;SDS011;27217;51.220;5.308;2023-06-24T02:31:15;14.45;;;9.15;;
41480;SDS011;27217;51.220;5.308;2023-06-24T02:33:42;13.45;;;8.82;;
41480;SDS011;27217;51.220;5.308;2023-06-24T02:36:08;14.77;;;10.13;;
41480;SDS011;27217;51.220;5.308;2023-06-24T02:38:36;15.80;;;9.93;;
41480;SDS011;27217;51.220;5.308;2023-06-24T02:41:02;13.23;;;8.60;;
41480;SDS011;27217;51.220;5.308;2023-06-24T02:43:29;15.85;;;9.27;;
41480;SDS011;27217;51.220;5.308;2023-06-24T02:45:55;11.10;;;8.50;;
41480;SDS011;27217;51.220;5.308;2023-06-24T02:48:23;18.13;;;8.75;;
41480;SDS011;27217;51.220;5.308;2023-06-24T02:50:49;15.77;;;8.77;;
41480;SDS011;27217;51.220;5.308;2023-06-24T02:53:16;16.98;;;9.85;;
41480;SDS011;27217;51.220;5.308;2023-06-24T02:55:42;15.90;;;10.07;;
41480;SDS011;27217;51.220;5.308;2023-06-24T02:58:09;21.25;;;9.73;;
41480;SDS011;27217;51.220;5.308;2023-06-24T03:00:35;14.75;;;9.32;;
41480;SDS011;27217;51.220;5.308;2023-06-24T03:03:03;14.10;;;9.02;;
41480;SDS011;27217;51.220;5.308;2023-06-24T03:05:31;11.95;;;8.63;;
41480;SDS011;27217;51.220;5.308;2023-06-24T03:08:00;18.15;;;9.65;;
41480;SDS011;27217;51.220;5.308;2023-06-24T03:10:28;15.30;;;9.32;;
41480;SDS011;27217;51.220;5.308;2023-06-24T03:12:54;17.63;;;10.73;;
41480;SDS011;27217;51.220;5.308;2023-06-24T03:15:20;16.40;;;10.18;;
41480;SDS011;27217;51.220;5.308;2023-06-24T03:17:46;15.68;;;10.02;;
41480;SDS011;27217;51.220;5.308;2023-06-24T03:20:12;13.32;;;9.82;;
41480;SDS011;27217;51.220;5.308;2023-06-24T03:22:38;20.08;;;11.38;;
41480;SDS011;27217;51.220;5.308;2023-06-24T03:25:04;20.80;;;10.77;;
41480;SDS011;27217;51.220;5.308;2023-06-24T03:27:30;15.32;;;9.80;;
41480;SDS011;27217;51.220;5.308;2023-06-24T03:29:56;19.17;;;11.32;;
41480;SDS011;27217;51.220;5.308;2023-06-24T03:32:22;17.30;;;11.00;;
41480;SDS011;27217;51.220;5.308;2023-06-24T03:34:48;19.05;;;11.38;;
41480;SDS011;27217;51.220;5.308;2023-06-24T03:37:14;18.02;;;10.77;;
41480;SDS011;27217;51.220;5.308;2023-06-24T03:39:39;17.00;;;11.88;;
41480;SDS011;27217;51.220;5.308;2023-06-24T03:42:06;17.52;;;10.35;;
41480;SDS011;27217;51.220;5.308;2023-06-24T03:44:32;15.82;;;10.07;;
41480;SDS011;27217;51.220;5.308;2023-06-24T03:46:58;18.40;;;10.85;;
41480;SDS011;27217;51.220;5.308;2023-06-24T03:49:24;18.55;;;10.52;;
41480;SDS011;27217;51.220;5.308;2023-06-24T03:51:53;18.70;;;11.77;;
41480;SDS011;27217;51.220;5.308;2023-06-24T03:54:18;20.58;;;11.02;;
41480;SDS011;27217;51.220;5.308;2023-06-24T03:56:44;17.90;;;11.10;;
41480;SDS011;27217;51.220;5.308;2023-06-24T03:59:10;19.00;;;11.75;;
41480;SDS011;27217;51.220;5.308;2023-06-24T04:01:36;16.65;;;10.43;;
41480;SDS011;27217;51.220;5.308;2023-06-24T04:04:02;19.00;;;11.60;;
41480;SDS011;27217;51.220;5.308;2023-06-24T04:06:29;20.77;;;11.77;;
41480;SDS011;27217;51.220;5.308;2023-06-24T04:08:55;18.70;;;12.35;;
41480;SDS011;27217;51.220;5.308;2023-06-24T04:11:21;20.08;;;12.43;;
41480;SDS011;27217;51.220;5.308;2023-06-24T04:13:48;20.42;;;12.30;;
41480;SDS011;27217;51.220;5.308;2023-06-24T04:16:14;18.02;;;11.65;;
41480;SDS011;27217;51.220;5.308;2023-06-24T04:18:40;18.70;;;11.98;;
41480;SDS011;27217;51.220;5.308;2023-06-24T04:21:06;18.02;;;12.02;;
41480;SDS011;27217;51.220;5.308;2023-06-24T04:23:32;18.83;;;10.98;;
41480;SDS011;27217;51.220;5.308;2023-06-24T04:25:58;20.42;;;10.98;;
41480;SDS011;27217;51.220;5.308;2023-06-24T04:28:25;19.27;;;11.55;;
41480;SDS011;27217;51.220;5.308;2023-06-24T04:30:51;17.90;;;10.75;;
41480;SDS011;27217;51.220;5.308;2023-06-24T04:33:17;19.35;;;11.13;;
41480;SDS011;27217;51.220;5.308;2023-06-24T04:35:43;16.52;;;10.80;;
41480;SDS011;27217;51.220;5.308;2023-06-24T04:38:09;18.27;;;11.88;;
41480;SDS011;27217;51.220;5.308;2023-06-24T04:40:35;20.30;;;12.75;;
41480;SDS011;27217;51.220;5.308;2023-06-24T04:43:02;15.68;;;10.05;;
41480;SDS011;27217;51.220;5.308;2023-06-24T04:45:28;18.33;;;10.13;;
41480;SDS011;27217;51.220;5.308;2023-06-24T04:47:53;19.02;;;10.63;;
41480;SDS011;27217;51.220;5.308;2023-06-24T04:50:20;17.63;;;10.05;;
41480;SDS011;27217;51.220;5.308;2023-06-24T04:52:46;19.45;;;11.50;;
41480;SDS011;27217;51.220;5.308;2023-06-24T04:55:18;18.55;;;10.10;;
41480;SDS011;27217;51.220;5.308;2023-06-24T04:57:44;16.25;;;10.60;;
41480;SDS011;27217;51.220;5.308;2023-06-24T05:00:10;17.52;;;10.15;;
41480;SDS011;27217;51.220;5.308;2023-06-24T05:02:37;13.77;;;9.15;;
41480;SDS011;27217;51.220;5.308;2023-06-24T05:05:03;13.63;;;8.95;;
41480;SDS011;27217;51.220;5.308;2023-06-24T05:07:29;12.90;;;8.98;;
41480;SDS011;27217;51.220;5.308;2023-06-24T05:09:55;17.58;;;9.27;;
41480;SDS011;27217;51.220;5.308;2023-06-24T05:12:21;14.07;;;8.77;;
41480;SDS011;27217;51.220;5.308;2023-06-24T05:14:50;15.13;;;8.80;;
41480;SDS011;27217;51.220;5.308;2023-06-24T05:17:20;13.45;;;8.50;;
41480;SDS011;27217;51.220;5.308;2023-06-24T05:19:46;16.98;;;8.75;;
41480;SDS011;27217;51.220;5.308;2023-06-24T05:22:12;11.60;;;7.63;;
41480;SDS011;27217;51.220;5.308;2023-06-24T05:24:37;10.95;;;7.47;;
41480;SDS011;27217;51.220;5.308;2023-06-24T05:27:04;10.13;;;7.97;;
41480;SDS011;27217;51.220;5.308;2023-06-24T05:29:31;10.55;;;7.05;;
41480;SDS011;27217;51.220;5.308;2023-06-24T05:31:57;10.10;;;6.65;;
41480;SDS011;27217;51.220;5.308;2023-06-24T05:34:24;13.70;;;6.72;;
41480;SDS011;27217;51.220;5.308;2023-06-24T05:36:50;8.95;;;6.03;;
41480;SDS011;27217;51.220;5.308;2023-06-24T05:39:16;8.57;;;5.78;;
41480;SDS011;27217;51.220;5.308;2023-06-24T05:41:43;10.52;;;6.10;;
41480;SDS011;27217;51.220;5.308;2023-06-24T05:44:09;11.90;;;5.53;;
41480;SDS011;27217;51.220;5.308;2023-06-24T05:46:35;9.48;;;5.63;;
41480;SDS011;27217;51.220;5.308;2023-06-24T05:49:02;11.30;;;6.15;;
41480;SDS011;27217;51.220;5.308;2023-06-24T05:51:28;8.05;;;5.22;;
41480;SDS011;27217;51.220;5.308;2023-06-24T05:53:54;8.35;;;5.45;;
41480;SDS011;27217;51.220;5.308;2023-06-24T05:56:20;8.00;;;5.35;;
41480;SDS011;27217;51.220;5.308;2023-06-24T05:58:47;9.82;;;5.05;;
41480;SDS011;27217;51.220;5.308;2023-06-24T06:01:13;6.55;;;4.93;;
41480;SDS011;27217;51.220;5.308;2023-06-24T06:03:39;7.10;;;4.82;;
41480;SDS011;27217;51.220;5.308;2023-06-24T06:06:06;7.28;;;5.30;;
41480;SDS011;27217;51.220;5.308;2023-06-24T06:08:32;7.55;;;4.03;;
41480;SDS011;27217;51.220;5.308;2023-06-24T06:10:59;9.00;;;4.40;;
41480;SDS011;27217;51.220;5.308;2023-06-24T06:13:27;5.75;;;4.10;;
41480;SDS011;27217;51.220;5.308;2023-06-24T06:15:53;7.63;;;4.22;;
41480;SDS011;27217;51.220;5.308;2023-06-24T06:18:19;9.05;;;4.50;;
41480;SDS011;27217;51.220;5.308;2023-06-24T06:20:45;10.70;;;3.92;;
41480;SDS011;27217;51.220;5.308;2023-06-24T06:23:11;6.97;;;3.90;;
41480;SDS011;27217;51.220;5.308;2023-06-24T06:25:37;9.70;;;4.68;;
41480;SDS011;27217;51.220;5.308;2023-06-24T06:28:04;12.65;;;4.75;;
41480;SDS011;27217;51.220;5.308;2023-06-24T06:30:29;5.85;;;4.03;;
41480;SDS011;27217;51.220;5.308;2023-06-24T06:32:55;4.47;;;3.63;;
41480;SDS011;27217;51.220;5.308;2023-06-24T06:35:21;5.80;;;3.45;;
41480;SDS011;27217;51.220;5.308;2023-06-24T06:37:47;5.75;;;3.78;;
41480;SDS011;27217;51.220;5.308;2023-06-24T06:40:17;5.38;;;3.60;;
41480;SDS011;27217;51.220;5.308;2023-06-24T06:42:44;6.93;;;3.72;;
41480;SDS011;27217;51.220;5.308;2023-06-24T06:45:09;4.22;;;3.08;;
41480;SDS011;27217;51.220;5.308;2023-06-24T06:47:35;5.63;;;3.20;;
41480;SDS011;27217;51.220;5.308;2023-06-24T06:50:01;6.85;;;3.25;;
41480;SDS011;27217;51.220;5.308;2023-06-24T06:52:27;3.95;;;3.00;;
41480;SDS011;27217;51.220;5.308;2023-06-24T06:54:55;4.80;;;2.90;;
41480;SDS011;27217;51.220;5.308;2023-06-24T06:57:21;5.13;;;3.05;;
41480;SDS011;27217;51.220;5.308;2023-06-24T06:59:47;4.43;;;3.05;;
41480;SDS011;27217;51.220;5.308;2023-06-24T07:02:16;5.80;;;3.25;;
41480;SDS011;27217;51.220;5.308;2023-06-24T07:04:44;4.75;;;2.65;;
41480;SDS011;27217;51.220;5.308;2023-06-24T07:07:12;6.00;;;3.20;;
41480;SDS011;27217;51.220;5.308;2023-06-24T07:09:38;5.20;;;3.28;;
41480;SDS011;27217;51.220;5.308;2023-06-24T07:12:04;4.25;;;2.90;;
41480;SDS011;27217;51.220;5.308;2023-06-24T07:14:31;3.13;;;2.42;;
41480;SDS011;27217;51.220;5.308;2023-06-24T07:16:57;4.80;;;2.60;;
41480;SDS011;27217;51.220;5.308;2023-06-24T07:19:23;8.65;;;2.65;;
41480;SDS011;27217;51.220;5.308;2023-06-24T07:21:49;4.85;;;2.60;;
41480;SDS011;27217;51.220;5.308;2023-06-24T07:24:16;3.17;;;2.45;;
41480;SDS011;27217;51.220;5.308;2023-06-24T07:26:42;3.00;;;2.70;;
41480;SDS011;27217;51.220;5.308;2023-06-24T07:29:08;3.53;;;2.95;;
41480;SDS011;27217;51.220;5.308;2023-06-24T07:31:34;4.50;;;2.60;;
41480;SDS011;27217;51.220;5.308;2023-06-24T07:34:00;5.53;;;2.58;;
41480;SDS011;27217;51.220;5.308;2023-06-24T07:36:26;2.75;;;2.10;;
41480;SDS011;27217;51.220;5.308;2023-06-24T07:38:52;3.50;;;2.30;;
41480;SDS011;27217;51.220;5.308;2023-06-24T07:41:18;3.60;;;2.63;;
41480;SDS011;27217;51.220;5.308;2023-06-24T07:43:44;3.15;;;2.60;;
41480;SDS011;27217;51.220;5.308;2023-06-24T07:46:09;4.63;;;2.55;;
41480;SDS011;27217;51.220;5.308;2023-06-24T07:48:36;5.03;;;3.35;;
41480;SDS011;27217;51.220;5.308;2023-06-24T07:51:02;5.53;;;2.30;;
41480;SDS011;27217;51.220;5.308;2023-06-24T07:53:27;2.53;;;2.25;;
41480;SDS011;27217;51.220;5.308;2023-06-24T07:55:53;3.13;;;1.90;;
41480;SDS011;27217;51.220;5.308;2023-06-24T07:58:19;2.35;;;1.95;;
41480;SDS011;27217;51.220;5.308;2023-06-24T08:00:45;5.22;;;2.10;;
41480;SDS011;27217;51.220;5.308;2023-06-24T08:03:12;2.75;;;2.10;;
41480;SDS011;27217;51.220;5.308;2023-06-24T08:05:38;1.85;;;1.75;;
41480;SDS011;27217;51.220;5.308;2023-06-24T08:08:05;4.53;;;2.38;;
41480;SDS011;27217;51.220;5.308;2023-06-24T08:10:31;5.50;;;1.70;;
41480;SDS011;27217;51.220;5.308;2023-06-24T08:12:57;2.78;;;2.00;;
41480;SDS011;27217;51.220;5.308;2023-06-24T08:15:23;6.60;;;2.22;;
41480;SDS011;27217;51.220;5.308;2023-06-24T08:17:53;4.03;;;2.05;;
41480;SDS011;27217;51.220;5.308;2023-06-24T08:20:22;2.53;;;1.40;;
41480;SDS011;27217;51.220;5.308;2023-06-24T08:22:49;1.73;;;1.60;;
41480;SDS011;27217;51.220;5.308;2023-06-24T08:25:16;7.22;;;2.17;;
41480;SDS011;27217;51.220;5.308;2023-06-24T08:27:42;5.35;;;1.90;;
41480;SDS011;27217;51.220;5.308;2023-06-24T08:30:11;2.55;;;1.83;;
41480;SDS011;27217;51.220;5.308;2023-06-24T08:32:38;1.90;;;1.67;;
41480;SDS011;27217;51.220;5.308;2023-06-24T08:35:05;2.30;;;1.67;;
41480;SDS011;27217;51.220;5.308;2023-06-24T08:37:32;2.40;;;1.92;;
41480;SDS011;27217;51.220;5.308;2023-06-24T08:39:59;2.67;;;2.05;;
41480;SDS011;27217;51.220;5.308;2023-06-24T08:42:24;4.78;;;1.67;;
41480;SDS011;27217;51.220;5.308;2023-06-24T08:44:51;3.70;;;1.95;;
41480;SDS011;27217;51.220;5.308;2023-06-24T08:47:17;3.08;;;1.90;;
41480;SDS011;27217;51.220;5.308;2023-06-24T08:49:47;2.90;;;1.80;;
41480;SDS011;27217;51.220;5.308;2023-06-24T08:52:20;3.22;;;1.77;;
41480;SDS011;27217;51.220;5.308;2023-06-24T08:54:50;5.65;;;2.25;;
41480;SDS011;27217;51.220;5.308;2023-06-24T08:57:16;2.10;;;1.83;;
41480;SDS011;27217;51.220;5.308;2023-06-24T08:59:43;2.28;;;1.55;;
41480;SDS011;27217;51.220;5.308;2023-06-24T09:02:09;2.53;;;1.70;;
41480;SDS011;27217;51.220;5.308;2023-06-24T09:04:36;5.50;;;1.92;;
41480;SDS011;27217;51.220;5.308;2023-06-24T09:07:02;5.47;;;2.05;;
41480;SDS011;27217;51.220;5.308;2023-06-24T09:09:28;3.33;;;1.92;;
41480;SDS011;27217;51.220;5.308;2023-06-24T09:11:54;3.63;;;1.50;;
41480;SDS011;27217;51.220;5.308;2023-06-24T09:14:25;2.15;;;1.50;;
41480;SDS011;27217;51.220;5.308;2023-06-24T09:16:59;5.47;;;1.85;;
41480;SDS011;27217;51.220;5.308;2023-06-24T09:19:29;1.63;;;1.52;;
41480;SDS011;27217;51.220;5.308;2023-06-24T09:22:06;2.28;;;1.83;;
41480;SDS011;27217;51.220;5.308;2023-06-24T09:24:34;1.92;;;1.70;;
41480;SDS011;27217;51.220;5.308;2023-06-24T09:27:02;1.63;;;1.48;;
41480;SDS011;27217;51.220;5.308;2023-06-24T09:29:31;1.90;;;1.50;;
41480;SDS011;27217;51.220;5.308;2023-06-24T09:31:58;3.90;;;1.77;;
41480;SDS011;27217;51.220;5.308;2023-06-24T09:34:28;3.38;;;1.60;;
41480;SDS011;27217;51.220;5.308;2023-06-24T09:36:55;4.70;;;1.60;;
41480;SDS011;27217;51.220;5.308;2023-06-24T09:39:22;4.72;;;1.58;;
41480;SDS011;27217;51.220;5.308;2023-06-24T09:41:57;2.00;;;1.52;;
41480;SDS011;27217;51.220;5.308;2023-06-24T09:44:43;2.35;;;1.33;;
41480;SDS011;27217;51.220;5.308;2023-06-24T09:47:17;1.70;;;1.60;;
41480;SDS011;27217;51.220;5.308;2023-06-24T09:49:42;3.95;;;1.40;;
41480;SDS011;27217;51.220;5.308;2023-06-24T09:52:26;1.98;;;1.67;;
41480;SDS011;27217;51.220;5.308;2023-06-24T09:54:53;1.95;;;1.50;;
41480;SDS011;27217;51.220;5.308;2023-06-24T09:57:22;2.78;;;1.70;;
41480;SDS011;27217;51.220;5.308;2023-06-24T09:59:54;4.13;;;1.83;;
41480;SDS011;27217;51.220;5.308;2023-06-24T10:02:23;2.90;;;1.50;;
41480;SDS011;27217;51.220;5.308;2023-06-24T10:04:50;2.40;;;1.40;;
41480;SDS011;27217;51.220;5.308;2023-06-24T10:07:17;5.03;;;1.77;;
41480;SDS011;27217;51.220;5.308;2023-06-24T10:09:43;3.00;;;1.75;;
41480;SDS011;27217;51.220;5.308;2023-06-24T10:12:09;3.22;;;1.85;;
41480;SDS011;27217;51.220;5.308;2023-06-24T10:14:35;3.65;;;1.73;;
41480;SDS011;27217;51.220;5.308;2023-06-24T10:17:05;2.08;;;1.50;;
41480;SDS011;27217;51.220;5.308;2023-06-24T10:19:37;1.95;;;1.45;;
41480;SDS011;27217;51.220;5.308;2023-06-24T10:22:04;3.63;;;1.70;;
41480;SDS011;27217;51.220;5.308;2023-06-24T10:24:36;2.28;;;1.65;;
41480;SDS011;27217;51.220;5.308;2023-06-24T10:27:13;2.92;;;1.88;;
41480;SDS011;27217;51.220;5.308;2023-06-24T10:29:44;6.32;;;1.73;;
41480;SDS011;27217;51.220;5.308;2023-06-24T10:32:12;4.03;;;1.70;;
41480;SDS011;27217;51.220;5.308;2023-06-24T10:34:38;2.25;;;1.60;;
41480;SDS011;27217;51.220;5.308;2023-06-24T10:37:25;4.85;;;1.58;;
41480;SDS011;27217;51.220;5.308;2023-06-24T10:39:55;1.60;;;1.50;;
41480;SDS011;27217;51.220;5.308;2023-06-24T10:42:32;2.50;;;1.58;;
41480;SDS011;27217;51.220;5.308;2023-06-24T10:47:38;2.42;;;1.80;;
41480;SDS011;27217;51.220;5.308;2023-06-24T10:50:05;2.92;;;1.60;;
41480;SDS011;27217;51.220;5.308;2023-06-24T10:52:32;2.17;;;1.50;;
41480;SDS011;27217;51.220;5.308;2023-06-24T10:55:15;2.95;;;1.95;;
41480;SDS011;27217;51.220;5.308;2023-06-24T10:57:43;1.70;;;1.23;;
41480;SDS011;27217;51.220;5.308;2023-06-24T11:00:10;3.22;;;1.50;;
41480;SDS011;27217;51.220;5.308;2023-06-24T11:02:36;3.05;;;1.50;;
41480;SDS011;27217;51.220;5.308;2023-06-24T11:05:03;4.55;;;1.40;;
41480;SDS011;27217;51.220;5.308;2023-06-24T11:07:33;2.15;;;1.50;;
41480;SDS011;27217;51.220;5.308;2023-06-24T11:10:04;1.48;;;1.38;;
41480;SDS011;27217;51.220;5.308;2023-06-24T11:12:32;2.03;;;1.38;;
41480;SDS011;27217;51.220;5.308;2023-06-24T11:15:06;1.50;;;1.27;;
41480;SDS011;27217;51.220;5.308;2023-06-24T11:17:33;2.72;;;1.60;;
41480;SDS011;27217;51.220;5.308;2023-06-24T11:19:59;2.75;;;1.60;;
41480;SDS011;27217;51.220;5.308;2023-06-24T11:22:26;1.75;;;1.30;;
41480;SDS011;27217;51.220;5.308;2023-06-24T11:24:54;2.10;;;1.48;;
41480;SDS011;27217;51.220;5.308;2023-06-24T11:27:27;2.35;;;1.65;;
41480;SDS011;27217;51.220;5.308;2023-06-24T11:29:57;1.60;;;1.33;;
41480;SDS011;27217;51.220;5.308;2023-06-24T11:32:34;2.50;;;1.90;;
41480;SDS011;27217;51.220;5.308;2023-06-24T11:35:04;3.60;;;1.98;;
41480;SDS011;27217;51.220;5.308;2023-06-24T11:37:32;4.45;;;1.75;;
41480;SDS011;27217;51.220;5.308;2023-06-24T11:40:03;2.40;;;1.65;;
41480;SDS011;27217;51.220;5.308;2023-06-24T11:42:30;1.70;;;1.60;;
41480;SDS011;27217;51.220;5.308;2023-06-24T11:45:00;1.75;;;1.65;;
41480;SDS011;27217;51.220;5.308;2023-06-24T11:47:30;4.95;;;1.45;;
41480;SDS011;27217;51.220;5.308;2023-06-24T11:49:58;2.05;;;1.70;;
41480;SDS011;27217;51.220;5.308;2023-06-24T11:52:43;6.20;;;1.80;;
41480;SDS011;27217;51.220;5.308;2023-06-24T12:00:23;3.15;;;1.90;;
41480;SDS011;27217;51.220;5.308;2023-06-24T12:02:54;5.30;;;1.73;;
41480;SDS011;27217;51.220;5.308;2023-06-24T12:05:25;1.98;;;1.63;;
41480;SDS011;27217;51.220;5.308;2023-06-24T12:07:56;2.30;;;1.30;;
41480;SDS011;27217;51.220;5.308;2023-06-24T12:10:40;1.45;;;1.30;;
41480;SDS011;27217;51.220;5.308;2023-06-24T12:13:06;3.05;;;1.88;;
41480;SDS011;27217;51.220;5.308;2023-06-24T12:15:33;2.67;;;1.77;;
41480;SDS011;27217;51.220;5.308;2023-06-24T12:18:00;2.60;;;1.63;;
41480;SDS011;27217;51.220;5.308;2023-06-24T12:20:27;4.60;;;1.67;;
41480;SDS011;27217;51.220;5.308;2023-06-24T12:22:53;4.18;;;1.48;;
41480;SDS011;27217;51.220;5.308;2023-06-24T12:25:19;1.88;;;1.67;;
41480;SDS011;27217;51.220;5.308;2023-06-24T12:27:45;3.88;;;1.50;;
41480;SDS011;27217;51.220;5.308;2023-06-24T12:30:12;1.50;;;1.38;;
41480;SDS011;27217;51.220;5.308;2023-06-24T12:32:38;3.35;;;1.73;;
41480;SDS011;27217;51.220;5.308;2023-06-24T12:35:05;1.50;;;1.40;;
41480;SDS011;27217;51.220;5.308;2023-06-24T12:37:33;2.33;;;1.60;;
41480;SDS011;27217;51.220;5.308;2023-06-24T12:40:00;1.92;;;1.60;;
41480;SDS011;27217;51.220;5.308;2023-06-24T12:42:26;2.95;;;1.67;;
41480;SDS011;27217;51.220;5.308;2023-06-24T12:44:53;2.15;;;1.70;;
41480;SDS011;27217;51.220;5.308;2023-06-24T12:47:19;1.55;;;1.45;;
41480;SDS011;27217;51.220;5.308;2023-06-24T12:49:45;3.85;;;1.58;;
41480;SDS011;27217;51.220;5.308;2023-06-24T12:52:12;2.20;;;1.65;;
41480;SDS011;27217;51.220;5.308;2023-06-24T12:54:39;1.42;;;1.25;;
41480;SDS011;27217;51.220;5.308;2023-06-24T12:57:04;3.53;;;1.58;;
41480;SDS011;27217;51.220;5.308;2023-06-24T12:59:30;2.60;;;1.90;;
41480;SDS011;27217;51.220;5.308;2023-06-24T13:01:56;3.85;;;1.60;;
41480;SDS011;27217;51.220;5.308;2023-06-24T13:04:22;2.35;;;1.33;;
41480;SDS011;27217;51.220;5.308;2023-06-24T13:06:49;2.47;;;1.55;;
41480;SDS011;27217;51.220;5.308;2023-06-24T13:09:18;9.98;;;1.90;;
41480;SDS011;27217;51.220;5.308;2023-06-24T13:11:44;6.43;;;1.60;;
41480;SDS011;27217;51.220;5.308;2023-06-24T13:14:10;2.08;;;1.60;;
41480;SDS011;27217;51.220;5.308;2023-06-24T13:16:37;1.77;;;1.45;;
41480;SDS011;27217;51.220;5.308;2023-06-24T13:19:03;1.42;;;1.33;;
41480;SDS011;27217;51.220;5.308;2023-06-24T13:21:29;2.45;;;1.60;;
41480;SDS011;27217;51.220;5.308;2023-06-24T13:23:54;2.05;;;1.38;;
41480;SDS011;27217;51.220;5.308;2023-06-24T13:26:20;1.40;;;1.30;;
41480;SDS011;27217;51.220;5.308;2023-06-24T13:28:46;3.83;;;1.30;;
41480;SDS011;27217;51.220;5.308;2023-06-24T13:31:14;1.80;;;1.30;;
41480;SDS011;27217;51.220;5.308;2023-06-24T13:33:40;1.10;;;1.10;;
41480;SDS011;27217;51.220;5.308;2023-06-24T13:36:07;1.50;;;1.30;;
41480;SDS011;27217;51.220;5.308;2023-06-24T13:38:37;2.40;;;1.85;;
41480;SDS011;27217;51.220;5.308;2023-06-24T13:41:02;3.67;;;1.83;;
41480;SDS011;27217;51.220;5.308;2023-06-24T13:43:28;1.40;;;1.30;;
41480;SDS011;27217;51.220;5.308;2023-06-24T13:45:54;1.83;;;1.35;;
41480;SDS011;27217;51.220;5.308;2023-06-24T13:48:19;1.65;;;1.20;;
41480;SDS011;27217;51.220;5.308;2023-06-24T13:50:45;2.13;;;1.63;;
41480;SDS011;27217;51.220;5.308;2023-06-24T13:53:11;1.77;;;1.25;;
41480;SDS011;27217;51.220;5.308;2023-06-24T13:55:37;4.63;;;2.33;;
41480;SDS011;27217;51.220;5.308;2023-06-24T13:58:03;2.05;;;1.50;;
41480;SDS011;27217;51.220;5.308;2023-06-24T14:00:29;5.20;;;1.60;;
41480;SDS011;27217;51.220;5.308;2023-06-24T14:02:55;2.97;;;1.30;;
41480;SDS011;27217;51.220;5.308;2023-06-24T14:05:21;1.98;;;1.60;;
41480;SDS011;27217;51.220;5.308;2023-06-24T14:07:47;1.75;;;1.52;;
41480;SDS011;27217;51.220;5.308;2023-06-24T14:10:13;4.13;;;1.60;;
41480;SDS011;27217;51.220;5.308;2023-06-24T14:12:39;2.03;;;1.27;;
41480;SDS011;27217;51.220;5.308;2023-06-24T14:15:07;1.30;;;1.20;;
41480;SDS011;27217;51.220;5.308;2023-06-24T14:17:35;3.67;;;1.58;;
41480;SDS011;27217;51.220;5.308;2023-06-24T14:20:01;1.60;;;1.20;;
41480;SDS011;27217;51.220;5.308;2023-06-24T14:22:26;3.15;;;1.50;;
41480;SDS011;27217;51.220;5.308;2023-06-24T14:24:52;1.85;;;1.75;;
41480;SDS011;27217;51.220;5.308;2023-06-24T14:27:18;1.40;;;1.30;;
41480;SDS011;27217;51.220;5.308;2023-06-24T14:29:44;4.05;;;1.50;;
41480;SDS011;27217;51.220;5.308;2023-06-24T14:32:10;1.50;;;1.40;;
41480;SDS011;27217;51.220;5.308;2023-06-24T14:34:36;1.67;;;1.58;;
41480;SDS011;27217;51.220;5.308;2023-06-24T14:37:02;2.53;;;1.30;;
41480;SDS011;27217;51.220;5.308;2023-06-24T14:39:28;2.90;;;1.63;;
41480;SDS011;27217;51.220;5.308;2023-06-24T14:41:54;1.67;;;1.58;;
41480;SDS011;27217;51.220;5.308;2023-06-24T14:44:19;3.05;;;1.58;;
41480;SDS011;27217;51.220;5.308;2023-06-24T14:46:45;2.78;;;1.55;;
41480;SDS011;27217;51.220;5.308;2023-06-24T14:49:12;1.70;;;1.55;;
41480;SDS011;27217;51.220;5.308;2023-06-24T14:51:37;2.28;;;1.50;;
41480;SDS011;27217;51.220;5.308;2023-06-24T14:54:03;3.90;;;1.67;;
41480;SDS011;27217;51.220;5.308;2023-06-24T14:56:30;1.73;;;1.50;;
41480;SDS011;27217;51.220;5.308;2023-06-24T14:58:56;1.33;;;1.23;;
41480;SDS011;27217;51.220;5.308;2023-06-24T15:01:23;1.40;;;1.30;;
41480;SDS011;27217;51.220;5.308;2023-06-24T15:03:49;2.78;;;1.58;;
41480;SDS011;27217;51.220;5.308;2023-06-24T15:06:14;1.73;;;1.30;;